sensor_id;sensor_type;location;lat;lon;timestamp;pressure;altitude;pressure_sealevel;temperature;humidity
9538;BME280;4807;48.024;11.726;2023-07-08T00:02:39;95213.91;;;14.48;68.37
9538;BME280;4807;48.024;11.726;2023-07-08T00:05:50;95193.84;;;14.57;67.67
9538;BME280;4807;48.024;11.726;2023-07-08T00:09:00;95194.09;;;14.49;67.83
9538;BME280;4807;48.024;11.726;2023-07-08T00:12:10;95191.84;;;14.46;68.14
9538;BME280;4807;48.024;11.726;2023-07-08T00:15:22;95193.50;;;14.47;68.80
9538;BME280;4807;48.024;11.726;2023-07-08T00:18:32;95185.84;;;14.50;68.56
9538;BME280;4807;48.024;11.726;2023-07-08T00:21:41;95190.56;;;14.55;68.49
9538;BME280;4807;48.024;11.726;2023-07-08T00:24:50;95182.91;;;14.59;68.27
9538;BME280;4807;48.024;11.726;2023-07-08T00:27:59;95176.16;;;14.74;67.46
9538;BME280;4807;48.024;11.726;2023-07-08T00:31:10;95174.50;;;14.73;66.84
9538;BME280;4807;48.024;11.726;2023-07-08T00:34:19;95184.41;;;14.73;66.76
9538;BME280;4807;48.024;11.726;2023-07-08T00:37:28;95186.41;;;14.77;66.32
9538;BME280;4807;48.024;11.726;2023-07-08T00:40:38;95184.66;;;14.89;66.75
9538;BME280;4807;48.024;11.726;2023-07-08T00:43:57;95188.25;;;15.02;67.71
9538;BME280;4807;48.024;11.726;2023-07-08T00:47:11;95182.88;;;15.02;67.35
9538;BME280;4807;48.024;11.726;2023-07-08T00:50:21;95181.22;;;15.01;67.62
9538;BME280;4807;48.024;11.726;2023-07-08T00:53:31;95176.84;;;14.88;68.28
9538;BME280;4807;48.024;11.726;2023-07-08T00:56:43;95188.47;;;14.82;67.88
9538;BME280;4807;48.024;11.726;2023-07-08T00:59:58;95181.06;;;14.77;67.84
9538;BME280;4807;48.024;11.726;2023-07-08T01:03:09;95178.56;;;14.82;67.48
9538;BME280;4807;48.024;11.726;2023-07-08T01:06:19;95181.25;;;14.82;67.51
9538;BME280;4807;48.024;11.726;2023-07-08T01:09:32;95176.03;;;14.87;66.51
9538;BME280;4807;48.024;11.726;2023-07-08T01:12:50;95183.78;;;14.96;66.46
9538;BME280;4807;48.024;11.726;2023-07-08T01:16:00;95175.44;;;15.04;66.08
9538;BME280;4807;48.024;11.726;2023-07-08T01:19:14;95178.72;;;15.06;66.64
9538;BME280;4807;48.024;11.726;2023-07-08T01:22:25;95175.22;;;15.05;66.36
9538;BME280;4807;48.024;11.726;2023-07-08T01:25:39;95175.56;;;15.09;66.06
9538;BME280;4807;48.024;11.726;2023-07-08T01:28:50;95176.66;;;15.08;66.34
9538;BME280;4807;48.024;11.726;2023-07-08T01:32:00;95176.66;;;15.08;65.68
9538;BME280;4807;48.024;11.726;2023-07-08T01:35:10;95176.03;;;15.06;65.71
9538;BME280;4807;48.024;11.726;2023-07-08T01:38:25;95176.88;;;15.06;66.11
9538;BME280;4807;48.024;11.726;2023-07-08T01:41:35;95186.56;;;15.07;65.17
9538;BME280;4807;48.024;11.726;2023-07-08T01:44:43;95182.38;;;15.11;65.81
9538;BME280;4807;48.024;11.726;2023-07-08T01:47:55;95188.56;;;15.12;67.63
9538;BME280;4807;48.024;11.726;2023-07-08T01:51:06;95185.47;;;15.08;68.23
9538;BME280;4807;48.024;11.726;2023-07-08T01:54:16;95179.91;;;15.10;66.48
9538;BME280;4807;48.024;11.726;2023-07-08T01:57:25;95177.38;;;14.97;67.05
9538;BME280;4807;48.024;11.726;2023-07-08T02:00:33;95182.28;;;14.81;67.88
9538;BME280;4807;48.024;11.726;2023-07-08T02:03:42;95180.69;;;14.74;68.49
9538;BME280;4807;48.024;11.726;2023-07-08T02:06:54;95177.34;;;14.78;68.56
9538;BME280;4807;48.024;11.726;2023-07-08T02:10:06;95179.28;;;14.71;69.53
9538;BME280;4807;48.024;11.726;2023-07-08T02:13:14;95180.16;;;14.65;69.85
9538;BME280;4807;48.024;11.726;2023-07-08T02:16:23;95179.41;;;14.58;69.69
9538;BME280;4807;48.024;11.726;2023-07-08T02:19:32;95164.34;;;14.57;69.15
9538;BME280;4807;48.024;11.726;2023-07-08T02:22:41;95171.78;;;14.55;69.29
9538;BME280;4807;48.024;11.726;2023-07-08T02:25:55;95173.44;;;14.56;69.59
9538;BME280;4807;48.024;11.726;2023-07-08T02:29:04;95165.59;;;14.55;69.07
9538;BME280;4807;48.024;11.726;2023-07-08T02:32:12;95165.69;;;14.48;70.06
9538;BME280;4807;48.024;11.726;2023-07-08T02:35:21;95167.75;;;14.46;69.96
9538;BME280;4807;48.024;11.726;2023-07-08T02:38:29;95163.81;;;14.48;70.59
9538;BME280;4807;48.024;11.726;2023-07-08T02:41:39;95174.97;;;14.45;70.62
9538;BME280;4807;48.024;11.726;2023-07-08T02:44:49;95163.63;;;14.43;70.25
9538;BME280;4807;48.024;11.726;2023-07-08T02:47:58;95158.94;;;14.39;70.18
9538;BME280;4807;48.024;11.726;2023-07-08T02:51:07;95158.94;;;14.39;70.41
9538;BME280;4807;48.024;11.726;2023-07-08T02:54:17;95157.09;;;14.39;70.07
9538;BME280;4807;48.024;11.726;2023-07-08T02:57:27;95158.31;;;14.37;70.39
9538;BME280;4807;48.024;11.726;2023-07-08T03:00:35;95167.38;;;14.36;70.18
9538;BME280;4807;48.024;11.726;2023-07-08T03:03:45;95156.66;;;14.36;70.88
9538;BME280;4807;48.024;11.726;2023-07-08T03:06:54;95163.28;;;14.40;70.85
9538;BME280;4807;48.024;11.726;2023-07-08T03:10:03;95163.66;;;14.37;70.63
9538;BME280;4807;48.024;11.726;2023-07-08T03:13:14;95170.06;;;14.36;70.38
9538;BME280;4807;48.024;11.726;2023-07-08T03:16:23;95168.19;;;14.43;70.52
9538;BME280;4807;48.024;11.726;2023-07-08T03:19:32;95170.81;;;14.49;69.59
9538;BME280;4807;48.024;11.726;2023-07-08T03:22:41;95172.22;;;14.52;69.73
9538;BME280;4807;48.024;11.726;2023-07-08T03:25:52;95178.41;;;14.52;69.93
9538;BME280;4807;48.024;11.726;2023-07-08T03:29:05;95174.47;;;14.55;69.43
9538;BME280;4807;48.024;11.726;2023-07-08T03:32:14;95159.31;;;14.67;69.82
9538;BME280;4807;48.024;11.726;2023-07-08T03:35:22;95152.53;;;14.65;69.88
9538;BME280;4807;48.024;11.726;2023-07-08T03:38:31;95162.78;;;14.68;69.59
9538;BME280;4807;48.024;11.726;2023-07-08T03:41:40;95156.13;;;14.77;70.02
9538;BME280;4807;48.024;11.726;2023-07-08T03:44:51;95161.25;;;14.78;69.84
9538;BME280;4807;48.024;11.726;2023-07-08T03:48:03;95172.28;;;14.88;68.69
9538;BME280;4807;48.024;11.726;2023-07-08T03:51:19;95168.72;;;14.95;69.00
9538;BME280;4807;48.024;11.726;2023-07-08T03:54:30;95163.88;;;15.03;68.62
9538;BME280;4807;48.024;11.726;2023-07-08T03:57:39;95161.00;;;15.05;68.45
9538;BME280;4807;48.024;11.726;2023-07-08T04:00:50;95163.50;;;15.18;67.92
9538;BME280;4807;48.024;11.726;2023-07-08T04:04:00;95164.41;;;15.30;67.73
9538;BME280;4807;48.024;11.726;2023-07-08T04:07:09;95161.44;;;15.38;67.50
9538;BME280;4807;48.024;11.726;2023-07-08T04:10:19;95150.53;;;15.51;67.26
9538;BME280;4807;48.024;11.726;2023-07-08T04:13:28;95151.19;;;15.65;66.24
9538;BME280;4807;48.024;11.726;2023-07-08T04:16:46;95142.75;;;15.80;66.19
9538;BME280;4807;48.024;11.726;2023-07-08T04:19:56;95148.50;;;15.95;66.01
9538;BME280;4807;48.024;11.726;2023-07-08T04:23:05;95143.63;;;16.15;64.50
9538;BME280;4807;48.024;11.726;2023-07-08T04:26:13;95144.25;;;16.17;64.89
9538;BME280;4807;48.024;11.726;2023-07-08T04:29:23;95158.16;;;16.26;65.27
9538;BME280;4807;48.024;11.726;2023-07-08T04:32:33;95157.94;;;16.39;64.22
9538;BME280;4807;48.024;11.726;2023-07-08T04:35:43;95154.81;;;16.54;63.42
9538;BME280;4807;48.024;11.726;2023-07-08T04:38:52;95172.56;;;16.55;64.88
9538;BME280;4807;48.024;11.726;2023-07-08T04:42:00;95169.09;;;16.66;66.41
9538;BME280;4807;48.024;11.726;2023-07-08T04:45:10;95164.44;;;16.73;65.83
9538;BME280;4807;48.024;11.726;2023-07-08T04:48:21;95176.59;;;16.87;65.22
9538;BME280;4807;48.024;11.726;2023-07-08T04:51:30;95177.88;;;16.96;63.39
9538;BME280;4807;48.024;11.726;2023-07-08T04:54:38;95193.88;;;17.14;63.94
9538;BME280;4807;48.024;11.726;2023-07-08T04:57:47;95202.78;;;17.27;62.96
9538;BME280;4807;48.024;11.726;2023-07-08T05:00:56;95198.53;;;17.42;62.19
9538;BME280;4807;48.024;11.726;2023-07-08T05:04:06;95199.91;;;17.57;61.47
9538;BME280;4807;48.024;11.726;2023-07-08T05:07:15;95210.63;;;17.80;64.80
9538;BME280;4807;48.024;11.726;2023-07-08T05:10:24;95210.13;;;17.20;67.52
9538;BME280;4807;48.024;11.726;2023-07-08T05:13:33;95210.28;;;17.01;70.03
9538;BME280;4807;48.024;11.726;2023-07-08T05:16:41;95213.41;;;17.33;68.28
9538;BME280;4807;48.024;11.726;2023-07-08T05:19:54;95211.50;;;17.45;67.85
9538;BME280;4807;48.024;11.726;2023-07-08T05:23:04;95234.66;;;17.70;66.09
9538;BME280;4807;48.024;11.726;2023-07-08T05:26:13;95226.81;;;17.80;64.90
9538;BME280;4807;48.024;11.726;2023-07-08T05:29:22;95225.81;;;17.98;63.59
9538;BME280;4807;48.024;11.726;2023-07-08T05:32:31;95233.00;;;17.80;65.39
9538;BME280;4807;48.024;11.726;2023-07-08T05:35:41;95223.00;;;17.92;65.35
9538;BME280;4807;48.024;11.726;2023-07-08T05:38:50;95218.69;;;18.20;64.30
9538;BME280;4807;48.024;11.726;2023-07-08T05:41:58;95214.38;;;18.64;62.57
9538;BME280;4807;48.024;11.726;2023-07-08T05:45:07;95218.56;;;19.05;60.90
9538;BME280;4807;48.024;11.726;2023-07-08T05:48:17;95220.00;;;18.34;60.23
9538;BME280;4807;48.024;11.726;2023-07-08T05:51:27;95226.00;;;18.08;62.17
9538;BME280;4807;48.024;11.726;2023-07-08T05:54:36;95230.56;;;18.64;61.03
9538;BME280;4807;48.024;11.726;2023-07-08T05:57:44;95235.44;;;18.67;60.28
9538;BME280;4807;48.024;11.726;2023-07-08T06:00:56;95238.09;;;18.95;59.14
9538;BME280;4807;48.024;11.726;2023-07-08T06:04:06;95242.53;;;19.57;58.43
9538;BME280;4807;48.024;11.726;2023-07-08T06:07:16;95239.25;;;20.20;56.91
9538;BME280;4807;48.024;11.726;2023-07-08T06:10:25;95232.66;;;20.33;55.23
9538;BME280;4807;48.024;11.726;2023-07-08T06:13:33;95238.88;;;20.87;55.13
9538;BME280;4807;48.024;11.726;2023-07-08T06:16:42;95233.63;;;21.07;52.88
9538;BME280;4807;48.024;11.726;2023-07-08T06:19:51;95227.66;;;21.42;52.00
9538;BME280;4807;48.024;11.726;2023-07-08T06:23:01;95235.13;;;21.25;50.95
9538;BME280;4807;48.024;11.726;2023-07-08T06:26:10;95227.28;;;22.38;49.19
9538;BME280;4807;48.024;11.726;2023-07-08T06:29:18;95224.94;;;23.28;46.84
9538;BME280;4807;48.024;11.726;2023-07-08T06:32:27;95227.66;;;23.43;44.57
9538;BME280;4807;48.024;11.726;2023-07-08T06:35:36;95228.69;;;22.56;47.97
9538;BME280;4807;48.024;11.726;2023-07-08T06:38:46;95228.09;;;22.28;48.27
9538;BME280;4807;48.024;11.726;2023-07-08T06:41:54;95222.72;;;22.59;49.39
9538;BME280;4807;48.024;11.726;2023-07-08T06:45:09;95237.00;;;22.24;48.75
9538;BME280;4807;48.024;11.726;2023-07-08T06:48:18;95249.38;;;22.87;48.09
9538;BME280;4807;48.024;11.726;2023-07-08T06:51:27;95242.31;;;22.81;48.74
9538;BME280;4807;48.024;11.726;2023-07-08T06:54:38;95232.00;;;23.24;48.00
9538;BME280;4807;48.024;11.726;2023-07-08T06:57:47;95237.97;;;23.56;47.38
9538;BME280;4807;48.024;11.726;2023-07-08T07:00:56;95239.31;;;23.64;47.38
9538;BME280;4807;48.024;11.726;2023-07-08T07:04:05;95240.69;;;23.41;47.46
9538;BME280;4807;48.024;11.726;2023-07-08T07:07:13;95240.72;;;23.51;47.53
9538;BME280;4807;48.024;11.726;2023-07-08T07:10:23;95230.38;;;23.58;48.29
9538;BME280;4807;48.024;11.726;2023-07-08T07:13:32;95228.66;;;23.87;46.09
9538;BME280;4807;48.024;11.726;2023-07-08T07:16:41;95227.50;;;24.04;47.15
9538;BME280;4807;48.024;11.726;2023-07-08T07:20:09;95222.38;;;24.56;45.76
9538;BME280;4807;48.024;11.726;2023-07-08T07:23:18;95225.28;;;24.65;44.06
9538;BME280;4807;48.024;11.726;2023-07-08T07:26:28;95224.81;;;25.31;43.35
9538;BME280;4807;48.024;11.726;2023-07-08T07:29:46;95216.19;;;26.48;41.35
9538;BME280;4807;48.024;11.726;2023-07-08T07:32:58;95231.75;;;26.85;39.80
9538;BME280;4807;48.024;11.726;2023-07-08T07:36:06;95235.78;;;26.07;40.80
9538;BME280;4807;48.024;11.726;2023-07-08T07:39:15;95235.13;;;26.15;40.92
9538;BME280;4807;48.024;11.726;2023-07-08T07:42:27;95236.88;;;26.06;41.20
9538;BME280;4807;48.024;11.726;2023-07-08T07:45:36;95247.31;;;26.47;39.83
9538;BME280;4807;48.024;11.726;2023-07-08T07:48:45;95248.84;;;26.10;40.66
9538;BME280;4807;48.024;11.726;2023-07-08T07:51:53;95257.88;;;25.82;42.20
9538;BME280;4807;48.024;11.726;2023-07-08T07:55:03;95258.59;;;25.93;41.41
9538;BME280;4807;48.024;11.726;2023-07-08T07:58:14;95263.03;;;25.26;42.68
9538;BME280;4807;48.024;11.726;2023-07-08T08:01:23;95268.31;;;25.75;41.46
9538;BME280;4807;48.024;11.726;2023-07-08T08:04:32;95267.16;;;25.81;40.06
9538;BME280;4807;48.024;11.726;2023-07-08T08:07:41;95277.50;;;25.84;41.55
9538;BME280;4807;48.024;11.726;2023-07-08T08:10:49;95279.09;;;24.83;43.90
9538;BME280;4807;48.024;11.726;2023-07-08T08:14:00;95281.50;;;24.90;45.10
9538;BME280;4807;48.024;11.726;2023-07-08T08:17:09;95282.28;;;23.67;47.15
9538;BME280;4807;48.024;11.726;2023-07-08T08:20:19;95284.22;;;24.90;45.34
9538;BME280;4807;48.024;11.726;2023-07-08T08:23:28;95294.03;;;24.96;45.83
9538;BME280;4807;48.024;11.726;2023-07-08T08:26:36;95289.03;;;23.89;47.11
9538;BME280;4807;48.024;11.726;2023-07-08T08:29:46;95298.81;;;23.80;47.31
9538;BME280;4807;48.024;11.726;2023-07-08T08:32:55;95296.69;;;23.57;47.88
9538;BME280;4807;48.024;11.726;2023-07-08T08:36:04;95303.94;;;23.92;47.43
9538;BME280;4807;48.024;11.726;2023-07-08T08:39:13;95297.22;;;23.24;48.95
9538;BME280;4807;48.024;11.726;2023-07-08T08:42:25;95307.00;;;23.35;48.89
9538;BME280;4807;48.024;11.726;2023-07-08T08:45:41;95300.19;;;23.17;47.65
9538;BME280;4807;48.024;11.726;2023-07-08T08:48:55;95296.13;;;22.94;47.35
9538;BME280;4807;48.024;11.726;2023-07-08T08:52:07;95295.03;;;23.31;48.33
9538;BME280;4807;48.024;11.726;2023-07-08T08:55:16;95311.56;;;23.85;47.70
9538;BME280;4807;48.024;11.726;2023-07-08T08:58:32;95302.66;;;23.34;47.57
9538;BME280;4807;48.024;11.726;2023-07-08T09:01:45;95316.19;;;23.84;46.11
9538;BME280;4807;48.024;11.726;2023-07-08T09:04:56;95307.53;;;23.72;47.93
9538;BME280;4807;48.024;11.726;2023-07-08T09:08:14;95310.81;;;23.64;46.67
9538;BME280;4807;48.024;11.726;2023-07-08T09:11:36;95308.59;;;23.86;46.85
9538;BME280;4807;48.024;11.726;2023-07-08T09:14:48;95313.94;;;24.17;46.34
9538;BME280;4807;48.024;11.726;2023-07-08T09:18:15;95312.44;;;24.60;45.95
9538;BME280;4807;48.024;11.726;2023-07-08T09:21:30;95307.28;;;24.63;44.93
9538;BME280;4807;48.024;11.726;2023-07-08T09:24:48;95314.22;;;24.30;44.79
9538;BME280;4807;48.024;11.726;2023-07-08T09:27:58;95316.91;;;24.36;45.36
9538;BME280;4807;48.024;11.726;2023-07-08T09:31:08;95326.47;;;24.87;44.20
9538;BME280;4807;48.024;11.726;2023-07-08T09:34:21;95308.09;;;25.13;43.04
9538;BME280;4807;48.024;11.726;2023-07-08T09:37:31;95321.16;;;24.57;43.50
9538;BME280;4807;48.024;11.726;2023-07-08T09:40:46;95312.06;;;25.65;40.10
9538;BME280;4807;48.024;11.726;2023-07-08T09:47:36;95307.53;;;27.87;37.49
9538;BME280;4807;48.024;11.726;2023-07-08T09:50:51;95309.06;;;26.85;38.61
9538;BME280;4807;48.024;11.726;2023-07-08T09:54:00;95300.66;;;26.82;38.08
9538;BME280;4807;48.024;11.726;2023-07-08T09:57:12;95308.94;;;26.53;38.52
9538;BME280;4807;48.024;11.726;2023-07-08T10:00:28;95313.25;;;26.59;38.60
9538;BME280;4807;48.024;11.726;2023-07-08T10:03:41;95310.75;;;26.39;37.96
9538;BME280;4807;48.024;11.726;2023-07-08T10:06:54;95322.97;;;27.26;36.15
9538;BME280;4807;48.024;11.726;2023-07-08T10:10:07;95319.66;;;26.26;37.07
9538;BME280;4807;48.024;11.726;2023-07-08T10:13:23;95322.03;;;26.99;35.78
9538;BME280;4807;48.024;11.726;2023-07-08T10:16:34;95319.28;;;27.17;36.12
9538;BME280;4807;48.024;11.726;2023-07-08T10:19:44;95333.41;;;26.63;36.26
9538;BME280;4807;48.024;11.726;2023-07-08T10:23:05;95329.16;;;27.69;35.44
9538;BME280;4807;48.024;11.726;2023-07-08T10:26:25;95333.97;;;27.91;34.61
9538;BME280;4807;48.024;11.726;2023-07-08T10:29:39;95331.69;;;27.47;36.02
9538;BME280;4807;48.024;11.726;2023-07-08T10:33:11;95327.50;;;27.36;36.08
9538;BME280;4807;48.024;11.726;2023-07-08T10:36:30;95317.97;;;27.15;36.45
9538;BME280;4807;48.024;11.726;2023-07-08T10:39:53;95326.44;;;26.52;36.88
9538;BME280;4807;48.024;11.726;2023-07-08T10:43:28;95330.97;;;27.23;35.64
9538;BME280;4807;48.024;11.726;2023-07-08T10:46:44;95333.38;;;26.87;36.28
9538;BME280;4807;48.024;11.726;2023-07-08T10:50:08;95333.28;;;26.73;36.03
9538;BME280;4807;48.024;11.726;2023-07-08T10:53:37;95337.47;;;26.66;35.18
9538;BME280;4807;48.024;11.726;2023-07-08T10:56:58;95326.88;;;26.83;35.92
9538;BME280;4807;48.024;11.726;2023-07-08T11:00:20;95321.22;;;27.17;35.36
9538;BME280;4807;48.024;11.726;2023-07-08T11:04:02;95333.41;;;26.63;35.23
9538;BME280;4807;48.024;11.726;2023-07-08T11:07:27;95325.25;;;26.10;34.65
9538;BME280;4807;48.024;11.726;2023-07-08T11:10:43;95331.66;;;26.25;34.59
9538;BME280;4807;48.024;11.726;2023-07-08T11:14:04;95320.06;;;26.80;36.26
9538;BME280;4807;48.024;11.726;2023-07-08T11:17:22;95322.06;;;27.50;34.06
9538;BME280;4807;48.024;11.726;2023-07-08T11:20:39;95320.28;;;27.78;32.89
9538;BME280;4807;48.024;11.726;2023-07-08T11:23:52;95322.41;;;27.29;32.68
9538;BME280;4807;48.024;11.726;2023-07-08T11:27:08;95322.75;;;27.42;34.02
9538;BME280;4807;48.024;11.726;2023-07-08T11:30:24;95319.44;;;27.26;33.99
9538;BME280;4807;48.024;11.726;2023-07-08T11:33:35;95315.97;;;27.20;31.95
9538;BME280;4807;48.024;11.726;2023-07-08T11:36:45;95317.03;;;27.76;32.36
9538;BME280;4807;48.024;11.726;2023-07-08T11:39:59;95313.41;;;27.80;32.84
9538;BME280;4807;48.024;11.726;2023-07-08T11:43:12;95310.03;;;27.69;33.66
9538;BME280;4807;48.024;11.726;2023-07-08T11:46:25;95300.28;;;27.63;32.55
9538;BME280;4807;48.024;11.726;2023-07-08T11:49:36;95310.75;;;27.24;32.02
9538;BME280;4807;48.024;11.726;2023-07-08T11:52:52;95308.34;;;27.36;33.44
9538;BME280;4807;48.024;11.726;2023-07-08T11:56:02;95306.75;;;27.49;31.61
9538;BME280;4807;48.024;11.726;2023-07-08T11:59:16;95288.81;;;27.61;32.37
9538;BME280;4807;48.024;11.726;2023-07-08T12:02:27;95301.41;;;27.76;31.64
9538;BME280;4807;48.024;11.726;2023-07-08T12:05:38;95297.41;;;28.01;31.97
9538;BME280;4807;48.024;11.726;2023-07-08T12:08:47;95290.41;;;27.30;32.83
9538;BME280;4807;48.024;11.726;2023-07-08T12:12:01;95289.13;;;27.73;32.88
9538;BME280;4807;48.024;11.726;2023-07-08T12:15:15;95284.00;;;27.72;32.75
9538;BME280;4807;48.024;11.726;2023-07-08T12:18:31;95284.97;;;27.62;32.97
9538;BME280;4807;48.024;11.726;2023-07-08T12:21:42;95288.00;;;27.42;33.26
9538;BME280;4807;48.024;11.726;2023-07-08T12:24:51;95291.03;;;27.59;31.70
9538;BME280;4807;48.024;11.726;2023-07-08T12:28:00;95293.03;;;28.00;30.63
9538;BME280;4807;48.024;11.726;2023-07-08T12:31:14;95295.63;;;28.65;30.62
9538;BME280;4807;48.024;11.726;2023-07-08T12:34:26;95288.69;;;29.31;30.74
9538;BME280;4807;48.024;11.726;2023-07-08T12:37:35;95294.31;;;29.70;30.37
9538;BME280;4807;48.024;11.726;2023-07-08T12:40:44;95294.09;;;29.58;29.38
9538;BME280;4807;48.024;11.726;2023-07-08T12:43:53;95297.97;;;29.21;29.17
9538;BME280;4807;48.024;11.726;2023-07-08T12:47:04;95292.44;;;29.35;30.16
9538;BME280;4807;48.024;11.726;2023-07-08T12:50:15;95283.88;;;29.50;29.54
9538;BME280;4807;48.024;11.726;2023-07-08T12:53:24;95286.56;;;29.41;29.32
9538;BME280;4807;48.024;11.726;2023-07-08T12:56:35;95284.16;;;29.26;30.35
9538;BME280;4807;48.024;11.726;2023-07-08T12:59:45;95277.75;;;29.53;28.12
9538;BME280;4807;48.024;11.726;2023-07-08T13:02:58;95285.06;;;28.72;28.40
9538;BME280;4807;48.024;11.726;2023-07-08T13:06:10;95281.22;;;28.59;29.18
9538;BME280;4807;48.024;11.726;2023-07-08T13:09:36;95283.84;;;28.64;27.88
9538;BME280;4807;48.024;11.726;2023-07-08T13:12:46;95296.00;;;28.72;28.42
9538;BME280;4807;48.024;11.726;2023-07-08T13:15:57;95287.53;;;29.45;26.75
9538;BME280;4807;48.024;11.726;2023-07-08T13:19:06;95277.34;;;29.68;26.92
9538;BME280;4807;48.024;11.726;2023-07-08T13:22:20;95277.41;;;29.77;26.40
9538;BME280;4807;48.024;11.726;2023-07-08T13:25:31;95288.53;;;29.94;27.62
9538;BME280;4807;48.024;11.726;2023-07-08T13:28:41;95288.72;;;29.98;27.00
9538;BME280;4807;48.024;11.726;2023-07-08T13:32:01;95279.25;;;29.59;26.71
9538;BME280;4807;48.024;11.726;2023-07-08T13:35:25;95280.34;;;29.36;27.81
9538;BME280;4807;48.024;11.726;2023-07-08T13:38:38;95273.38;;;29.74;28.55
9538;BME280;4807;48.024;11.726;2023-07-08T13:41:48;95280.91;;;29.91;28.29
9538;BME280;4807;48.024;11.726;2023-07-08T13:44:58;95281.22;;;30.20;26.01
9538;BME280;4807;48.024;11.726;2023-07-08T13:48:21;95270.16;;;30.03;26.27
9538;BME280;4807;48.024;11.726;2023-07-08T13:51:32;95271.88;;;29.46;26.99
9538;BME280;4807;48.024;11.726;2023-07-08T13:54:47;95272.97;;;29.58;26.32
9538;BME280;4807;48.024;11.726;2023-07-08T13:57:58;95280.78;;;29.51;27.29
9538;BME280;4807;48.024;11.726;2023-07-08T14:01:09;95281.91;;;28.92;27.92
9538;BME280;4807;48.024;11.726;2023-07-08T14:04:29;95281.81;;;28.56;29.29
9538;BME280;4807;48.024;11.726;2023-07-08T14:07:38;95279.50;;;28.77;28.52
9538;BME280;4807;48.024;11.726;2023-07-08T14:10:48;95288.13;;;28.57;28.94
9538;BME280;4807;48.024;11.726;2023-07-08T14:13:57;95281.00;;;28.56;28.21
9538;BME280;4807;48.024;11.726;2023-07-08T14:17:10;95267.03;;;28.43;28.88
9538;BME280;4807;48.024;11.726;2023-07-08T14:20:20;95271.38;;;28.58;28.48
9538;BME280;4807;48.024;11.726;2023-07-08T14:23:32;95277.59;;;28.77;28.40
9538;BME280;4807;48.024;11.726;2023-07-08T14:26:44;95271.84;;;28.88;28.22
9538;BME280;4807;48.024;11.726;2023-07-08T14:29:53;95261.84;;;29.05;27.06
9538;BME280;4807;48.024;11.726;2023-07-08T14:33:01;95260.34;;;29.35;26.65
9538;BME280;4807;48.024;11.726;2023-07-08T14:36:10;95263.81;;;29.72;26.91
9538;BME280;4807;48.024;11.726;2023-07-08T14:39:19;95257.78;;;29.61;25.78
9538;BME280;4807;48.024;11.726;2023-07-08T14:42:30;95261.53;;;29.65;26.37
9538;BME280;4807;48.024;11.726;2023-07-08T14:45:41;95264.09;;;29.92;25.21
9538;BME280;4807;48.024;11.726;2023-07-08T14:48:51;95264.09;;;29.92;24.89
9538;BME280;4807;48.024;11.726;2023-07-08T14:52:02;95272.63;;;30.13;25.72
9538;BME280;4807;48.024;11.726;2023-07-08T14:55:11;95270.28;;;30.29;26.04
9538;BME280;4807;48.024;11.726;2023-07-08T14:58:25;95265.34;;;30.48;26.68
9538;BME280;4807;48.024;11.726;2023-07-08T15:01:35;95271.84;;;30.52;25.68
9538;BME280;4807;48.024;11.726;2023-07-08T15:04:43;95268.66;;;30.28;25.98
9538;BME280;4807;48.024;11.726;2023-07-08T15:07:54;95265.56;;;29.90;26.19
9538;BME280;4807;48.024;11.726;2023-07-08T15:11:08;95267.59;;;29.84;26.63
9538;BME280;4807;48.024;11.726;2023-07-08T15:14:22;95266.78;;;29.84;25.27
9538;BME280;4807;48.024;11.726;2023-07-08T15:17:31;95266.88;;;29.70;26.01
9538;BME280;4807;48.024;11.726;2023-07-08T15:20:40;95269.34;;;29.13;26.23
9538;BME280;4807;48.024;11.726;2023-07-08T15:23:49;95266.31;;;29.15;26.85
9538;BME280;4807;48.024;11.726;2023-07-08T15:26:58;95261.34;;;29.39;25.09
9538;BME280;4807;48.024;11.726;2023-07-08T15:30:16;95258.75;;;29.87;26.13
9538;BME280;4807;48.024;11.726;2023-07-08T15:33:25;95265.75;;;30.73;25.43
9538;BME280;4807;48.024;11.726;2023-07-08T15:36:34;95259.38;;;30.07;23.51
9538;BME280;4807;48.024;11.726;2023-07-08T15:39:43;95262.88;;;29.99;25.33
9538;BME280;4807;48.024;11.726;2023-07-08T15:42:53;95269.16;;;30.30;25.12
9538;BME280;4807;48.024;11.726;2023-07-08T15:46:04;95266.09;;;30.01;25.56
9538;BME280;4807;48.024;11.726;2023-07-08T15:49:17;95259.13;;;30.34;26.19
9538;BME280;4807;48.024;11.726;2023-07-08T15:52:26;95267.66;;;29.93;24.17
9538;BME280;4807;48.024;11.726;2023-07-08T15:55:37;95260.94;;;29.77;25.19
9538;BME280;4807;48.024;11.726;2023-07-08T15:58:47;95263.38;;;30.40;23.86
9538;BME280;4807;48.024;11.726;2023-07-08T16:02:03;95266.09;;;30.88;23.58
9538;BME280;4807;48.024;11.726;2023-07-08T16:05:12;95266.31;;;31.69;23.93
9538;BME280;4807;48.024;11.726;2023-07-08T16:08:22;95264.81;;;31.55;22.42
9538;BME280;4807;48.024;11.726;2023-07-08T16:11:32;95267.41;;;31.77;23.22
9538;BME280;4807;48.024;11.726;2023-07-08T16:14:41;95263.13;;;32.05;22.49
9538;BME280;4807;48.024;11.726;2023-07-08T16:17:51;95270.69;;;31.10;23.56
9538;BME280;4807;48.024;11.726;2023-07-08T16:21:00;95273.25;;;31.50;22.88
9538;BME280;4807;48.024;11.726;2023-07-08T16:24:10;95271.31;;;31.59;22.90
9538;BME280;4807;48.024;11.726;2023-07-08T16:27:18;95269.69;;;30.10;25.03
9538;BME280;4807;48.024;11.726;2023-07-08T16:30:28;95271.59;;;30.01;25.64
9538;BME280;4807;48.024;11.726;2023-07-08T16:33:38;95261.97;;;30.12;24.89
9538;BME280;4807;48.024;11.726;2023-07-08T16:36:47;95258.59;;;30.15;24.42
9538;BME280;4807;48.024;11.726;2023-07-08T16:39:56;95256.03;;;30.66;24.52
9538;BME280;4807;48.024;11.726;2023-07-08T16:43:12;95255.06;;;30.62;23.62
9538;BME280;4807;48.024;11.726;2023-07-08T16:46:25;95259.13;;;30.99;23.37
9538;BME280;4807;48.024;11.726;2023-07-08T16:49:36;95252.19;;;34.34;20.13
9538;BME280;4807;48.024;11.726;2023-07-08T16:52:45;95257.16;;;36.88;17.42
9538;BME280;4807;48.024;11.726;2023-07-08T16:55:54;95253.09;;;38.81;15.61
9538;BME280;4807;48.024;11.726;2023-07-08T16:59:03;95241.72;;;36.24;16.91
9538;BME280;4807;48.024;11.726;2023-07-08T17:02:13;95243.22;;;37.38;16.18
9538;BME280;4807;48.024;11.726;2023-07-08T17:05:33;95250.22;;;41.15;13.83
9538;BME280;4807;48.024;11.726;2023-07-08T17:08:43;95251.88;;;37.91;15.60
9538;BME280;4807;48.024;11.726;2023-07-08T17:11:52;95252.50;;;37.27;15.81